Time;durP1;ratioP1;P1;durP2;ratioP2;P2;SDS_P1;SDS_P2;PMS_P1;PMS_P2;Temp;Humidity;BMP_temperature;BMP_pressure;BME280_temperature;BME280_humidity;BME280_pressure;Samples;Min_cycle;Max_cycle;Signal;HPM_P1;HPM_P2
2022/03/13 00:00:59;;;;;;;91.60;38.95;;;0.20;1536.00;;;;;;4952841;29;20035;-57
2022/03/13 00:03:26;;;;;;;78.47;32.08;;;0.20;1561.60;;;;;;4934533;29;20166;-57
2022/03/13 00:05:53;;;;;;;61.38;27.73;;;0.10;1561.60;;;;;;4956856;29;20023;-57
2022/03/13 00:08:30;;;;;;;66.85;29.27;;;0.10;1561.60;;;;;;4937488;29;20039;-57
2022/03/13 00:11:18;;;;;;;67.28;29.73;;;0.10;1536.00;;;;;;4951687;29;20568;-57
2022/03/13 00:13:51;;;;;;;69.30;30.95;;;0.10;1536.00;;;;;;4956777;29;20030;-57
2022/03/13 00:16:18;;;;;;;65.85;28.95;;;0.10;1536.00;;;;;;4956760;29;20480;-57
2022/03/13 00:18:46;;;;;;;64.53;28.90;;;0.10;1536.00;;;;;;4956925;29;20532;-57
2022/03/13 00:21:15;;;;;;;66.07;30.48;;;0.10;1561.60;;;;;;4963970;28;20018;-57
2022/03/13 00:23:42;;;;;;;59.33;29.05;;;0.10;1561.60;;;;;;4952231;28;20099;-57
2022/03/13 00:26:08;;;;;;;65.15;28.73;;;0.10;1587.20;;;;;;4962270;28;20039;-57
2022/03/13 00:28:34;;;;;;;71.05;29.65;;;0.00;1587.20;;;;;;4975907;28;20047;-57
2022/03/13 00:31:00;;;;;;;67.15;29.45;;;12.90;1587.20;;;;;;4961029;28;20027;-57
2022/03/13 00:33:26;;;;;;;61.00;28.77;;;13.00;1612.80;;;;;;4955741;28;20144;-57
2022/03/13 00:35:52;;;;;;;64.70;28.10;;;13.10;1612.80;;;;;;4955447;29;20513;-57
2022/03/13 00:38:23;;;;;;;58.40;26.10;;;13.10;1612.80;;;;;;4954585;28;20347;-57
2022/03/13 00:40:51;;;;;;;;;;;13.10;1587.20;;;;;;4944528;29;20251;-57
2022/03/13 00:43:21;;;;;;;71.67;31.93;;;13.10;1587.20;;;;;;4952524;28;20050;-57
2022/03/13 00:45:47;;;;;;;109.68;43.55;;;13.20;1612.80;;;;;;4954248;29;20085;-57
2022/03/13 00:48:12;;;;;;;112.40;46.17;;;13.30;1612.80;;;;;;4952692;29;20062;-56
2022/03/13 00:50:39;;;;;;;103.80;42.25;;;13.30;1638.40;;;;;;4950489;28;20035;-57
2022/03/13 00:53:05;;;;;;;110.65;44.90;;;13.30;1638.40;;;;;;4971538;28;20154;-57
2022/03/13 00:55:31;;;;;;;104.68;45.45;;;13.30;1664.00;;;;;;4964355;28;20387;-57
2022/03/13 00:57:57;;;;;;;114.65;46.97;;;13.20;1638.40;;;;;;4937538;29;20043;-56
2022/03/13 01:00:23;;;;;;;167.63;67.53;;;13.20;1664.00;;;;;;4937049;29;20028;-57
2022/03/13 01:02:49;;;;;;;136.50;56.55;;;13.30;1664.00;;;;;;4938464;29;20047;-57
2022/03/13 01:05:26;;;;;;;155.43;55.97;;;13.30;1664.00;;;;;;4950042;28;20389;-57
2022/03/13 01:07:53;;;;;;;159.50;57.63;;;13.40;1689.60;;;;;;4955533;29;20051;-57
2022/03/13 01:10:20;;;;;;;175.68;63.83;;;13.50;1689.60;;;;;;4949773;29;20051;-57
2022/03/13 01:12:48;;;;;;;223.77;76.32;;;13.50;1715.20;;;;;;4954708;28;20071;-57
2022/03/13 01:15:13;;;;;;;229.07;75.93;;;13.40;1689.60;;;;;;4955911;29;20516;-57
2022/03/13 01:17:39;;;;;;;234.27;79.65;;;13.30;1689.60;;;;;;4955638;28;20035;-57
2022/03/13 01:20:14;;;;;;;211.95;72.25;;;13.30;1689.60;;;;;;4954357;28;20034;-57
2022/03/13 01:22:40;;;;;;;235.82;80.05;;;13.30;1689.60;;;;;;4950645;29;20512;-57
2022/03/13 01:25:06;;;;;;;185.98;65.03;;;13.30;1715.20;;;;;;4954335;29;20055;-57
2022/03/13 01:27:32;;;;;;;193.27;65.20;;;13.40;1715.20;;;;;;4952996;28;20086;-57
2022/03/13 01:29:59;;;;;;;206.20;67.63;;;13.40;1740.80;;;;;;4954001;28;20051;-57
2022/03/13 01:32:25;;;;;;;204.63;68.68;;;13.60;1740.80;;;;;;4953534;28;20045;-57
2022/03/13 01:34:54;;;;;;;219.82;67.97;;;13.60;1740.80;;;;;;4953785;29;20027;-57
2022/03/13 01:37:33;;;;;;;202.57;65.90;;;13.70;1740.80;;;;;;4953674;28;20066;-57
2022/03/13 01:40:02;;;;;;;229.48;69.80;;;13.60;1740.80;;;;;;4954032;29;20062;-57
2022/03/13 01:42:27;;;;;;;230.70;67.38;;;13.70;1740.80;;;;;;4953727;28;20094;-57
2022/03/13 01:44:53;;;;;;;216.20;70.07;;;38.40;1740.80;;;;;;4953520;28;20024;-57
2022/03/13 01:47:19;;;;;;;229.38;71.47;;;38.40;1740.80;;;;;;4953171;28;20456;-57
2022/03/13 01:49:46;;;;;;;233.63;71.30;;;13.60;1740.80;;;;;;4956248;28;20139;-57
2022/03/13 01:52:12;;;;;;;244.45;73.00;;;38.40;1740.80;;;;;;4952537;28;20035;-57
2022/03/13 01:54:40;;;;;;;247.55;75.63;;;13.70;1740.80;;;;;;4953657;29;20058;-57
2022/03/13 01:57:06;;;;;;;280.58;78.85;;;38.40;1766.40;;;;;;4951242;28;20034;-57
2022/03/13 01:59:31;;;;;;;276.25;81.85;;;38.50;1740.80;;;;;;4954019;29;20118;-57
2022/03/13 02:01:57;;;;;;;280.42;81.30;;;38.40;1740.80;;;;;;4936924;29;20039;-56
2022/03/13 02:04:28;;;;;;;264.80;83.68;;;38.40;1740.80;;;;;;4936979;29;20057;-57
2022/03/13 02:06:58;;;;;;;271.88;79.43;;;38.40;1740.80;;;;;;4954046;29;20445;-57
2022/03/13 02:09:26;;;;;;;254.93;79.28;;;13.70;1766.40;;;;;;4945029;28;20027;-56
2022/03/13 02:11:53;;;;;;;245.15;78.90;;;38.40;1766.40;;;;;;4945213;29;20035;-57
2022/03/13 02:14:23;;;;;;;275.15;83.40;;;38.40;1766.40;;;;;;4953922;29;20023;-56
2022/03/13 02:16:51;;;;;;;262.50;81.35;;;38.40;1766.40;;;;;;4953599;29;20126;-57
2022/03/13 02:19:20;;;;;;;274.25;81.90;;;38.50;1792.00;;;;;;4953270;28;20057;-56
2022/03/13 02:21:50;;;;;;;259.30;83.15;;;38.50;1817.60;;;;;;4954425;28;20054;-57
2022/03/13 02:24:19;;;;;;;238.63;76.57;;;38.50;1792.00;;;;;;4952749;29;20443;-57
2022/03/13 02:27:01;;;;;;;235.75;79.03;;;38.50;1792.00;;;;;;4952278;28;20039;-57
2022/03/13 02:29:28;;;;;;;256.98;81.25;;;38.40;1817.60;;;;;;4922653;29;20028;-57
2022/03/13 02:31:55;;;;;;;258.45;82.60;;;38.50;1817.60;;;;;;4950702;29;20031;-57
2022/03/13 02:34:21;;;;;;;243.13;81.15;;;38.50;1843.20;;;;;;4951880;29;20146;-57
2022/03/13 02:36:49;;;;;;;233.35;75.90;;;38.50;1843.20;;;;;;4952432;29;20527;-56
2022/03/13 02:39:16;;;;;;;215.07;72.70;;;38.50;1843.20;;;;;;4951315;28;20525;-57
2022/03/13 02:41:43;;;;;;;207.65;67.82;;;38.50;1817.60;;;;;;4952303;29;20088;-57
2022/03/13 02:44:11;;;;;;;181.60;60.97;;;38.60;1817.60;;;;;;4950993;29;20480;-58
2022/03/13 02:46:46;;;;;;;171.23;57.25;;;38.60;1817.60;;;;;;4952749;29;20028;-58
2022/03/13 02:49:21;;;;;;;165.05;53.53;;;38.60;1817.60;;;;;;4951528;29;20432;-57
2022/03/13 02:51:51;;;;;;;144.20;49.17;;;38.70;1817.60;;;;;;4952680;29;20058;-58
2022/03/13 02:54:17;;;;;;;125.40;47.03;;;38.70;1817.60;;;;;;4952623;29;20035;-58
2022/03/13 02:56:44;;;;;;;125.47;45.53;;;38.70;1817.60;;;;;;4955755;28;20035;-57
2022/03/13 02:59:12;;;;;;;113.82;42.83;;;38.70;1817.60;;;;;;4955004;29;20469;-59
2022/03/13 03:01:39;;;;;;;106.57;40.92;;;38.70;1817.60;;;;;;4956661;29;20046;-57
2022/03/13 03:04:05;;;;;;;99.80;39.03;;;38.70;1843.20;;;;;;4956038;29;20015;-57
2022/03/13 03:06:32;;;;;;;94.68;38.80;;;38.80;1843.20;;;;;;4956503;29;20024;-57
2022/03/13 03:09:03;;;;;;;93.22;38.25;;;38.90;1843.20;;;;;;4956241;29;20058;-57
2022/03/13 03:11:32;;;;;;;90.80;36.45;;;39.00;1843.20;;;;;;4954481;29;20051;-58
2022/03/13 03:14:02;;;;;;;91.28;37.38;;;39.00;1843.20;;;;;;4955851;29;20037;-58
2022/03/13 03:16:28;;;;;;;100.18;38.13;;;39.00;1843.20;;;;;;4956276;29;20027;-57
2022/03/13 03:18:53;;;;;;;100.07;39.07;;;39.10;1843.20;;;;;;4956078;29;20363;-57
2022/03/13 03:21:19;;;;;;;95.13;38.55;;;39.10;1843.20;;;;;;4955865;29;20027;-58
2022/03/13 03:23:45;;;;;;;91.70;36.35;;;39.10;1843.20;;;;;;4956016;29;20023;-57
2022/03/13 03:26:11;;;;;;;78.95;34.70;;;39.10;1843.20;;;;;;4956081;29;20023;-57
2022/03/13 03:28:36;;;;;;;86.03;36.15;;;39.10;1843.20;;;;;;4956002;29;20481;-57
2022/03/13 03:31:03;;;;;;;85.38;35.47;;;39.10;1843.20;;;;;;4956317;29;20495;-58
2022/03/13 03:33:29;;;;;;;85.75;35.72;;;39.20;1843.20;;;;;;4955797;29;20027;-58
2022/03/13 03:35:55;;;;;;;82.13;35.78;;;39.10;1843.20;;;;;;4956118;29;20050;-57
2022/03/13 03:38:21;;;;;;;82.70;35.97;;;39.20;1843.20;;;;;;4955942;29;20504;-57
2022/03/13 03:40:48;;;;;;;78.00;34.30;;;39.20;1843.20;;;;;;4955864;29;20031;-58
2022/03/13 03:43:14;;;;;;;85.57;36.60;;;39.30;1868.80;;;;;;4955951;29;20019;-58
2022/03/13 03:45:40;;;;;;;84.40;36.83;;;39.20;1868.80;;;;;;4955446;29;20034;-58
2022/03/13 03:48:06;;;;;;;82.97;34.45;;;39.30;1868.80;;;;;;4938023;29;20090;-58
2022/03/13 03:50:32;;;;;;;85.10;36.97;;;39.30;1868.80;;;;;;4955382;29;20031;-58
2022/03/13 03:52:58;;;;;;;86.95;37.25;;;39.30;1868.80;;;;;;4955021;29;20019;-57
2022/03/13 03:55:25;;;;;;;87.20;37.05;;;39.30;1868.80;;;;;;4955457;29;20465;-58
2022/03/13 03:57:51;;;;;;;89.40;37.05;;;39.20;1868.80;;;;;;4953967;29;20027;-57
2022/03/13 04:00:18;;;;;;;91.20;38.58;;;39.20;1868.80;;;;;;4955179;29;20027;-58
2022/03/13 04:02:44;;;;;;;87.65;37.72;;;39.20;1868.80;;;;;;4955266;29;20016;-57
2022/03/13 04:05:11;;;;;;;89.75;38.28;;;39.20;1868.80;;;;;;4955271;29;20042;-57
2022/03/13 04:07:37;;;;;;;80.30;35.78;;;39.20;1894.40;;;;;;4937485;29;20058;-57
2022/03/13 04:10:04;;;;;;;88.10;36.80;;;39.20;1894.40;;;;;;4954981;29;20043;-57
2022/03/13 04:12:30;;;;;;;91.70;37.47;;;39.30;1894.40;;;;;;4953605;29;20547;-57
2022/03/13 04:14:56;;;;;;;88.43;37.15;;;39.30;1894.40;;;;;;4955143;29;20500;-57
2022/03/13 04:17:22;;;;;;;87.45;36.88;;;64.20;1894.40;;;;;;4955300;29;20066;-57
2022/03/13 04:19:48;;;;;;;89.57;36.72;;;39.30;1920.00;;;;;;4955271;29;20643;-58
2022/03/13 04:22:15;;;;;;;86.47;36.28;;;39.30;1920.00;;;;;;4955466;29;20031;-57
2022/03/13 04:24:41;;;;;;;90.82;37.92;;;39.30;1920.00;;;;;;4955166;29;20354;-58
2022/03/13 04:27:07;;;;;;;93.82;39.22;;;39.30;1945.60;;;;;;4955229;29;20081;-57
2022/03/13 04:29:34;;;;;;;96.57;39.25;;;64.00;1945.60;;;;;;4937070;29;20027;-57
2022/03/13 04:32:03;;;;;;;99.80;41.30;;;39.30;1945.60;;;;;;4954810;29;20054;-57
2022/03/13 04:34:29;;;;;;;105.10;42.53;;;39.30;1920.00;;;;;;4945061;29;20496;-57
2022/03/13 04:36:56;;;;;;;108.43;42.92;;;64.00;1920.00;;;;;;4947076;29;20047;-57
2022/03/13 04:39:21;;;;;;;101.20;41.50;;;64.00;1945.60;;;;;;4953482;29;20031;-57
2022/03/13 04:41:47;;;;;;;94.80;39.97;;;64.00;1945.60;;;;;;4956085;29;20420;-57
2022/03/13 04:44:14;;;;;;;97.97;40.83;;;64.00;1945.60;;;;;;4955604;29;20015;-58
2022/03/13 04:46:41;;;;;;;101.28;42.08;;;64.10;1945.60;;;;;;4955541;29;20035;-57
2022/03/13 04:49:07;;;;;;;97.97;41.10;;;64.10;1945.60;;;;;;4955604;29;20539;-57
2022/03/13 04:51:32;;;;;;;99.25;42.60;;;64.00;1945.60;;;;;;4955687;29;20031;-57
2022/03/13 04:53:58;;;;;;;90.65;39.00;;;64.10;1945.60;;;;;;4955532;29;20516;-58
2022/03/13 04:56:24;;;;;;;87.70;37.05;;;64.10;1971.20;;;;;;4955613;29;20119;-57
2022/03/13 04:58:50;;;;;;;89.18;37.40;;;64.20;1971.20;;;;;;4955322;29;20047;-57
2022/03/13 05:01:19;;;;;;;88.18;37.92;;;64.20;1996.80;;;;;;4955747;29;20030;-57
2022/03/13 05:03:45;;;;;;;85.13;36.63;;;64.20;1996.80;;;;;;4955359;29;20034;-57
2022/03/13 05:06:11;;;;;;;81.53;35.75;;;64.30;1996.80;;;;;;4955476;29;20029;-58
2022/03/13 05:08:37;;;;;;;84.82;37.28;;;64.50;1996.80;;;;;;4955639;29;20046;-57
2022/03/13 05:11:05;;;;;;;88.20;36.03;;;64.50;2022.40;;;;;;4954887;29;20035;-57
2022/03/13 05:13:31;;;;;;;83.20;34.22;;;64.70;2022.40;;;;;;4955102;29;20536;-58
2022/03/13 05:15:57;;;;;;;89.75;35.35;;;64.80;2022.40;;;;;;4955249;29;20035;-58
2022/03/13 05:18:23;;;;;;;137.32;50.45;;;64.70;2022.40;;;;;;4954452;28;20031;-57
2022/03/13 05:20:49;;;;;;;116.90;47.40;;;64.70;2022.40;;;;;;4955389;29;20023;-58
2022/03/13 05:23:15;;;;;;;120.13;48.30;;;64.60;1996.80;;;;;;4955018;29;20057;-58
2022/03/13 05:25:41;;;;;;;136.43;56.60;;;64.60;1996.80;;;;;;4955053;29;20019;-58
2022/03/13 05:28:09;;;;;;;118.97;48.50;;;64.60;1996.80;;;;;;4937661;29;20042;-58
2022/03/13 05:30:36;;;;;;;97.90;41.65;;;64.50;1996.80;;;;;;4954817;29;20031;-58
2022/03/13 05:33:02;;;;;;;97.05;39.92;;;64.50;1996.80;;;;;;4949667;29;20039;-58
2022/03/13 05:35:28;;;;;;;96.97;40.72;;;64.60;1996.80;;;;;;4954781;29;20051;-58
2022/03/13 05:37:54;;;;;;;161.63;61.53;;;64.50;1996.80;;;;;;4955034;29;20047;-57
2022/03/13 05:40:21;;;;;;;153.57;57.70;;;64.40;1996.80;;;;;;4954808;29;20034;-58
2022/03/13 05:42:50;;;;;;;196.50;70.05;;;64.30;1971.20;;;;;;4954664;29;20039;-57
2022/03/13 05:45:19;;;;;;;333.65;103.57;;;64.10;1945.60;;;;;;4954930;29;20521;-58
2022/03/13 05:47:50;;;;;;;289.85;93.95;;;64.10;1920.00;;;;;;4945497;29;20035;-57
2022/03/13 05:50:17;;;;;;;133.57;50.60;;;39.30;1920.00;;;;;;4945743;29;20040;-60
2022/03/13 05:52:45;;;;;;;109.60;42.85;;;39.30;1894.40;;;;;;4954398;29;20489;-58
2022/03/13 05:55:11;;;;;;;104.05;41.88;;;39.20;1894.40;;;;;;4954208;29;20425;-57
2022/03/13 05:57:37;;;;;;;97.50;42.45;;;39.10;1894.40;;;;;;4954481;29;20042;-57
2022/03/13 06:00:07;;;;;;;107.07;45.15;;;39.00;1868.80;;;;;;4954355;29;20068;-58
2022/03/13 06:02:36;;;;;;;111.72;47.60;;;38.80;1843.20;;;;;;4954688;29;20036;-58
2022/03/13 06:05:03;;;;;;;394.05;136.35;;;38.60;1843.20;;;;;;4943374;29;20054;-57
2022/03/13 06:07:29;;;;;;;240.45;94.22;;;38.50;1817.60;;;;;;4944893;29;20523;-57
2022/03/13 06:09:56;;;;;;;169.60;69.63;;;38.40;1817.60;;;;;;4954064;29;20131;-57
2022/03/13 06:12:21;;;;;;;119.82;50.10;;;13.70;1817.60;;;;;;4954166;29;20112;-57
2022/03/13 06:14:47;;;;;;;111.65;45.53;;;13.50;1792.00;;;;;;4954142;29;20104;-57
2022/03/13 06:17:13;;;;;;;120.60;52.45;;;13.40;1766.40;;;;;;4954107;29;20027;-57
2022/03/13 06:19:42;;;;;;;128.18;55.70;;;13.20;1740.80;;;;;;4954175;29;20431;-58
2022/03/13 06:22:12;;;;;;;88.95;39.28;;;13.00;1740.80;;;;;;4954431;29;20031;-58
2022/03/13 06:24:38;;;;;;;82.78;38.15;;;0.00;1715.20;;;;;;4954346;29;20110;-58
2022/03/13 06:27:05;;;;;;;81.45;38.40;;;0.20;1689.60;;;;;;4954176;29;20116;-58
2022/03/13 06:29:31;;;;;;;83.70;38.40;;;0.50;1664.00;;;;;;4953960;28;20103;-57
2022/03/13 06:31:58;;;;;;;73.68;36.28;;;0.60;1664.00;;;;;;4957351;29;20119;-57
2022/03/13 06:34:24;;;;;;;76.10;36.65;;;0.70;1689.60;;;;;;4958199;29;20042;-58
2022/03/13 06:36:50;;;;;;;104.10;45.25;;;25.60;1689.60;;;;;;4958108;29;20031;-58
2022/03/13 06:39:16;;;;;;;112.90;64.32;;;26.00;1664.00;;;;;;4958313;29;20469;-58
2022/03/13 06:41:42;;;;;;;59.88;31.58;;;51.40;1612.80;;;;;;4957813;29;20027;-58
2022/03/13 06:44:08;;;;;;;57.80;31.10;;;77.40;1484.80;;;;;;4957951;29;20035;-58
2022/03/13 06:46:34;;;;;;;63.08;32.00;;;128.40;1356.80;;;;;;4957395;29;20035;-58
2022/03/13 06:49:02;;;;;;;52.30;30.88;;;179.70;1203.20;;;;;;4957812;29;20082;-58
2022/03/13 06:51:28;;;;;;;115.30;60.30;;;230.60;1049.60;;;;;;4958073;29;20027;-58
2022/03/13 06:53:54;;;;;;;132.35;70.68;;;281.80;921.60;;;;;;4957975;29;20346;-59
2022/03/13 06:56:19;;;;;;;131.07;74.30;;;308.10;844.80;;;;;;4957980;29;20027;-59
2022/03/13 06:58:45;;;;;;;111.50;68.60;;;358.90;768.00;;;;;;4957454;29;20106;-58
2022/03/13 07:01:10;;;;;;;56.75;38.08;;;409.70;716.80;;;;;;4957001;29;20023;-58
2022/03/13 07:03:37;;;;;;;58.75;40.65;;;435.40;640.00;;;;;;4957126;29;20063;-59
2022/03/13 07:06:04;;;;;;;50.45;35.45;;;461.10;665.60;;;;;;4954849;29;20035;-59
2022/03/13 07:08:33;;;;;;;55.40;38.63;;;486.40;614.40;;;;;;4957697;29;20047;-59
2022/03/13 07:11:02;;;;;;;56.75;42.88;;;487.20;563.20;;;;;;4957240;29;20047;-60
2022/03/13 07:13:32;;;;;;;48.72;32.53;;;512.40;537.60;;;;;;4957712;29;20023;-59
2022/03/13 07:16:01;;;;;;;52.33;35.97;;;537.70;512.00;;;;;;4957161;29;20027;-59
2022/03/13 07:18:27;;;;;;;50.05;36.42;;;563.20;512.00;;;;;;4957517;29;20098;-59
2022/03/13 07:20:53;;;;;;;40.63;30.75;;;563.60;486.40;;;;;;4957076;29;20413;-59
2022/03/13 07:23:19;;;;;;;46.10;35.65;;;564.00;486.40;;;;;;4957273;29;20019;-60
2022/03/13 07:25:44;;;;;;;46.35;33.35;;;589.40;460.80;;;;;;4957145;29;20484;-60
2022/03/13 07:28:10;;;;;;;41.50;31.67;;;589.70;435.20;;;;;;4957065;29;20034;-60
2022/03/13 07:30:36;;;;;;;49.95;35.28;;;589.60;435.20;;;;;;4956923;29;20141;-59
2022/03/13 07:33:02;;;;;;;39.00;28.70;;;588.90;460.80;;;;;;4957037;29;20049;-59
2022/03/13 07:35:27;;;;;;;41.40;29.27;;;538.50;486.40;;;;;;4956929;29;20063;-60
2022/03/13 07:37:53;;;;;;;44.90;33.53;;;512.10;512.00;;;;;;4957101;29;20026;-59
2022/03/13 07:40:19;;;;;;;41.28;29.90;;;486.90;537.60;;;;;;4957199;29;20038;-60
2022/03/13 07:42:44;;;;;;;42.85;29.65;;;461.20;563.20;;;;;;4956424;28;20023;-59
2022/03/13 07:45:11;;;;;;;43.08;33.25;;;461.40;588.80;;;;;;4956806;29;20097;-59
2022/03/13 07:47:36;;;;;;;44.10;31.50;;;461.60;563.20;;;;;;4956512;29;20486;-59
2022/03/13 07:50:03;;;;;;;56.80;40.65;;;512.00;512.00;;;;;;4956775;29;20028;-59
2022/03/13 07:52:29;;;;;;;41.35;32.00;;;512.00;486.40;;;;;;4956928;29;20027;-59
2022/03/13 07:54:54;;;;;;;38.85;27.38;;;537.60;486.40;;;;;;4956258;29;20090;-60
2022/03/13 07:57:20;;;;;;;129.82;91.65;;;538.40;460.80;;;;;;4956813;29;20024;-60
2022/03/13 07:59:47;;;;;;;47.20;36.58;;;563.50;460.80;;;;;;4956863;29;20028;-59
2022/03/13 08:02:14;;;;;;;36.25;27.10;;;563.20;486.40;;;;;;4956422;29;20038;-60
2022/03/13 08:04:40;;;;;;;99.20;88.97;;;588.90;460.80;;;;;;4956495;29;20019;-60
2022/03/13 08:07:06;;;;;;;40.63;33.08;;;614.50;409.60;;;;;;4956341;29;20503;-60
2022/03/13 08:09:34;;;;;;;43.30;35.63;;;640.00;384.00;;;;;;4956194;29;20046;-60
2022/03/13 08:12:00;;;;;;;175.48;157.80;;;665.60;384.00;;;;;;4956239;29;20023;-60
2022/03/13 08:14:29;;;;;;;52.33;44.35;;;665.70;358.40;;;;;;4956282;29;20027;-59
2022/03/13 08:16:55;;;;;;;37.50;30.38;;;691.60;332.80;;;;;;4956251;29;20070;-59
2022/03/13 08:19:20;;;;;;;29.73;24.58;;;691.20;332.80;;;;;;4955995;29;20031;-59
2022/03/13 08:21:46;;;;;;;579.92;162.13;;;691.50;332.80;;;;;;4956257;29;20031;-59
2022/03/13 08:24:14;;;;;;;72.78;43.03;;;691.60;307.20;;;;;;4956414;29;20037;-60
2022/03/13 08:26:40;;;;;;;34.05;26.80;;;691.60;307.20;;;;;;4956282;29;20078;-60
2022/03/13 08:29:09;;;;;;;30.38;25.13;;;691.60;307.20;;;;;;4956054;29;20038;-59
2022/03/13 08:31:36;;;;;;;58.22;42.45;;;716.90;307.20;;;;;;4956206;29;20027;-60
2022/03/13 08:34:07;;;;;;;41.38;33.47;;;717.30;307.20;;;;;;4955839;29;20019;-59
2022/03/13 08:36:35;;;;;;;35.58;29.77;;;717.60;307.20;;;;;;4956120;29;20031;-60
2022/03/13 08:39:00;;;;;;;33.83;27.60;;;743.10;281.60;;;;;;4955821;29;20484;-60
2022/03/13 08:41:26;;;;;;;24.25;20.70;;;768.50;256.00;;;;;;4956128;29;20058;-59
2022/03/13 08:43:52;;;;;;;37.55;31.20;;;743.30;281.60;;;;;;4955945;29;20106;-60
2022/03/13 08:46:18;;;;;;;25.88;20.52;;;768.30;281.60;;;;;;4955881;29;20023;-59
2022/03/13 08:48:44;;;;;;;29.38;24.83;;;768.50;256.00;;;;;;4946896;29;20019;-59
2022/03/13 08:51:12;;;;;;;34.33;25.90;;;742.80;281.60;;;;;;4945990;29;20020;-59
2022/03/13 08:53:38;;;;;;;35.03;27.10;;;742.70;281.60;;;;;;4954815;28;20499;-59
2022/03/13 08:56:04;;;;;;;31.70;26.08;;;742.80;281.60;;;;;;4952893;29;20019;-59
2022/03/13 08:58:29;;;;;;;33.47;25.80;;;742.50;307.20;;;;;;4955809;29;20028;-60
2022/03/13 09:00:56;;;;;;;44.85;31.73;;;717.70;281.60;;;;;;4955289;29;20030;-60
2022/03/13 09:03:22;;;;;;;51.10;34.60;;;768.10;281.60;;;;;;4955385;29;20104;-57
2022/03/13 09:05:48;;;;;;;127.75;70.53;;;742.90;281.60;;;;;;4955483;29;20023;-59
2022/03/13 09:08:15;;;;;;;49.45;31.00;;;717.50;281.60;;;;;;4955988;29;20031;-58
2022/03/13 09:10:41;;;;;;;46.70;31.08;;;717.10;281.60;;;;;;4956446;29;20402;-58
2022/03/13 09:13:07;;;;;;;27.63;20.92;;;743.20;307.20;;;;;;4940525;28;20086;-57
2022/03/13 09:15:33;;;;;;;56.42;37.33;;;768.00;281.60;;;;;;4936019;29;20035;-60
2022/03/13 09:18:02;;;;;;;27.77;24.77;;;793.90;281.60;;;;;;4949775;28;20117;-58
2022/03/13 09:20:28;;;;;;;37.25;33.17;;;742.90;281.60;;;;;;4937494;29;20028;-57
2022/03/13 09:22:55;;;;;;;22.35;16.92;;;743.00;256.00;;;;;;4951194;28;20049;-57
2022/03/13 09:25:21;;;;;;;21.35;16.70;;;743.10;281.60;;;;;;4936096;29;20039;-57
2022/03/13 09:27:48;;;;;;;38.83;29.05;;;768.80;256.00;;;;;;4953591;28;20066;-58
2022/03/13 09:30:14;;;;;;;25.17;19.00;;;819.50;230.40;;;;;;4951372;28;20034;-57
2022/03/13 09:32:40;;;;;;;24.05;20.65;;;845.00;256.00;;;;;;4953305;28;20222;-57
2022/03/13 09:35:07;;;;;;;20.27;16.00;;;820.00;230.40;;;;;;4954073;29;20020;-56
2022/03/13 09:37:33;;;;;;;22.60;18.63;;;845.10;256.00;;;;;;4952714;28;20486;-58
2022/03/13 09:39:59;;;;;;;17.65;15.20;;;819.60;230.40;;;;;;4954205;29;20039;-58
2022/03/13 09:42:24;;;;;;;19.30;16.33;;;793.90;256.00;;;;;;4953514;28;20027;-57
2022/03/13 09:44:50;;;;;;;19.27;16.98;;;768.40;230.40;;;;;;4953908;28;20521;-58
2022/03/13 09:47:16;;;;;;;20.00;16.58;;;794.40;230.40;;;;;;4936446;29;20039;-57
2022/03/13 09:49:43;;;;;;;20.17;17.25;;;819.70;230.40;;;;;;4953251;29;20038;-56
2022/03/13 09:52:10;;;;;;;22.02;16.77;;;819.50;230.40;;;;;;4953270;29;20035;-56
2022/03/13 09:54:35;;;;;;;17.67;15.70;;;794.20;230.40;;;;;;4953164;28;20362;-57
2022/03/13 09:57:05;;;;;;;16.48;13.57;;;845.10;256.00;;;;;;4953592;29;20042;-57
2022/03/13 09:59:31;;;;;;;16.90;14.85;;;844.80;256.00;;;;;;4952855;28;20098;-57
2022/03/13 10:01:57;;;;;;;22.58;19.90;;;844.80;256.00;;;;;;4952824;29;20971;-59
2022/03/13 10:04:23;;;;;;;14.57;12.43;;;845.60;256.00;;;;;;4950456;28;20035;-59
2022/03/13 10:07:07;;;;;;;13.82;12.40;;;870.60;256.00;;;;;;4952064;28;20043;-58
2022/03/13 10:09:34;;;;;;;25.48;21.20;;;870.40;256.00;;;;;;4951720;28;20090;-56
2022/03/13 10:12:11;;;;;;;12.88;11.10;;;870.60;256.00;;;;;;4953295;28;20018;-58
2022/03/13 10:15:00;;;;;;;13.50;12.10;;;870.80;256.00;;;;;;4950780;28;20118;-57
2022/03/13 10:17:27;;;;;;;15.52;13.85;;;845.30;256.00;;;;;;4950762;28;20043;-57
2022/03/13 10:19:54;;;;;;;62.17;34.22;;;870.60;256.00;;;;;;4951854;28;20039;-58
2022/03/13 10:22:29;;;;;;;17.05;15.25;;;870.80;256.00;;;;;;4951197;29;20059;-58
2022/03/13 10:24:54;;;;;;;14.40;12.90;;;870.80;256.00;;;;;;4950792;28;20085;-61
2022/03/13 10:27:20;;;;;;;12.80;11.55;;;845.60;256.00;;;;;;4951632;28;20047;-58
2022/03/13 10:29:47;;;;;;;17.30;15.60;;;871.30;256.00;;;;;;4951711;28;20043;-57
2022/03/13 10:32:13;;;;;;;22.00;18.98;;;870.40;256.00;;;;;;4952354;29;20122;-57
2022/03/13 10:34:39;;;;;;;21.67;19.35;;;845.20;256.00;;;;;;4952950;28;20035;-57
2022/03/13 10:37:05;;;;;;;14.27;12.63;;;870.50;256.00;;;;;;4953637;29;20031;-58
2022/03/13 10:39:34;;;;;;;16.52;12.77;;;870.40;256.00;;;;;;4953805;28;20112;-57
2022/03/13 10:42:02;;;;;;;11.45;10.25;;;870.40;256.00;;;;;;4954231;29;20038;-58
2022/03/13 10:44:33;;;;;;;11.43;9.55;;;819.50;230.40;;;;;;4953961;28;20079;-58
2022/03/13 10:47:08;;;;;;;141.23;49.38;;;794.00;230.40;;;;;;4953173;29;20050;-58
2022/03/13 10:49:41;;;;;;;27.77;15.70;;;794.40;230.40;;;;;;4950059;28;20043;-58
2022/03/13 10:52:25;;;;;;;19.50;17.60;;;845.10;256.00;;;;;;4951508;29;20031;-59
2022/03/13 10:54:56;;;;;;;22.45;17.25;;;845.40;256.00;;;;;;4951633;28;20023;-60
2022/03/13 10:57:23;;;;;;;17.73;15.00;;;844.80;256.00;;;;;;4951119;29;20031;-58
2022/03/13 11:00:12;;;;;;;13.68;11.32;;;845.60;256.00;;;;;;4951753;28;20047;-60
2022/03/13 11:02:38;;;;;;;19.48;16.88;;;845.00;256.00;;;;;;4951151;28;20034;-59
2022/03/13 11:05:05;;;;;;;11.02;9.93;;;870.60;256.00;;;;;;4952852;28;20027;-59
2022/03/13 11:07:31;;;;;;;35.63;32.03;;;871.10;256.00;;;;;;4952513;29;20763;-60
2022/03/13 11:09:57;;;;;;;9.93;8.90;;;870.40;256.00;;;;;;4954166;28;20448;-59
2022/03/13 11:12:24;;;;;;;49.00;23.80;;;870.70;256.00;;;;;;4961124;28;20031;-58
2022/03/13 11:14:52;;;;;;;10.63;8.45;;;870.90;256.00;;;;;;4952681;28;20122;-59
2022/03/13 11:17:20;;;;;;;10.60;9.45;;;819.70;230.40;;;;;;4954348;28;20078;-59
2022/03/13 11:19:49;;;;;;;14.30;10.63;;;845.40;256.00;;;;;;4956638;28;20038;-59
2022/03/13 11:22:20;;;;;;;15.73;13.40;;;845.70;256.00;;;;;;4956263;29;20023;-58
2022/03/13 11:24:50;;;;;;;56.22;27.52;;;845.20;256.00;;;;;;4956087;28;20421;-59
2022/03/13 11:27:16;;;;;;;17.20;14.15;;;845.60;256.00;;;;;;4956113;29;20031;-58
2022/03/13 11:29:52;;;;;;;13.60;12.18;;;845.10;256.00;;;;;;4954889;28;20350;-58
2022/03/13 11:32:45;;;;;;;20.20;16.88;;;845.70;256.00;;;;;;4954379;29;20031;-58
2022/03/13 11:35:11;;;;;;;17.40;15.38;;;845.70;256.00;;;;;;4952529;28;20035;-59
2022/03/13 11:37:38;;;;;;;12.65;11.15;;;794.40;230.40;;;;;;4952898;29;20035;-58
2022/03/13 11:40:05;;;;;;;12.00;10.10;;;819.80;230.40;;;;;;4954045;29;20019;-58
2022/03/13 11:43:06;;;;;;;14.88;13.32;;;845.30;256.00;;;;;;4953538;28;20035;-60
2022/03/13 11:45:34;;;;;;;25.25;18.13;;;871.20;256.00;;;;;;4875162;29;20572;-61
2022/03/13 11:48:05;;;;;;;25.48;18.35;;;896.60;256.00;;;;;;4876658;29;20081;-62
2022/03/13 11:50:48;;;;;;;11.55;10.35;;;896.60;256.00;;;;;;4875459;29;20033;-60
2022/03/13 11:53:24;;;;;;;12.80;11.50;;;845.50;256.00;;;;;;4873605;29;20033;-60
2022/03/13 11:56:02;;;;;;;16.30;14.30;;;870.40;256.00;;;;;;4876638;29;20730;-64
2022/03/13 11:58:42;;;;;;;15.95;13.55;;;845.30;256.00;;;;;;4876352;29;20451;-62
2022/03/13 12:01:12;;;;;;;11.10;9.93;;;845.30;256.00;;;;;;4875858;29;20073;-60
2022/03/13 12:03:39;;;;;;;9.20;8.30;;;871.10;256.00;;;;;;4876552;29;20036;-66
2022/03/13 12:06:05;;;;;;;12.88;11.52;;;820.10;230.40;;;;;;4875698;29;20109;-60
2022/03/13 12:09:08;;;;;;;10.65;9.18;;;819.40;230.40;;;;;;4876155;29;20057;-59